Terminal Aerodrome Forecast
Issued by NWS Newport/Morehead City, NC

Home | Current Version | Previous Version | Graphics & Text | Print | Product List | Glossary On
Versions: 1 2 3 4 5 6 7 8 9 10 11 12 13 14 15 16 17 18 19 20 21 22 23 24 25 26
000
FTUS42 KMHX 280918 AAA
TAFEWN
TAF AMD
KEWN 280918Z 2809/2906 20005KT P6SM FEW100 BKN250
      TEMPO 2809/2812 SHRA BKN015
     FM281900 19009KT P6SM VCTS SCT050CB BKN110
     FM282100 19007KT 6SM SHRA VCTS BKN050CB
     FM290300 20003KT 6SM BR VCSH BKN040=

USA.gov is the U.S. government's official web portal to all federal, state and local government web resources and services.